createdAt,value
2023-04-21T00:01:13.924Z,5.15
2023-04-21T00:06:22.771Z,4.60
2023-04-21T00:11:26.644Z,4.63
2023-04-21T00:16:31.823Z,4.15
2023-04-21T00:21:37.005Z,4.30
2023-04-21T00:31:45.224Z,5.53
2023-04-21T00:36:48.752Z,6.82
2023-04-21T00:41:52.248Z,5.72
2023-04-21T00:46:57.247Z,6.03
2023-04-21T00:57:04.651Z,4.65
2023-04-21T01:02:09.622Z,4.65
2023-04-21T01:12:16.387Z,5.40
2023-04-21T01:17:21.730Z,4.40
2023-04-21T01:22:26.914Z,4.38
2023-04-21T01:27:30.584Z,4.55
2023-04-21T01:32:34.097Z,4.90
2023-04-21T01:37:39.434Z,4.15
2023-04-21T01:42:44.470Z,5.72
2023-04-21T01:47:48.063Z,6.05
2023-04-21T01:52:53.087Z,4.93
2023-04-21T02:03:01.563Z,4.60
2023-04-21T02:08:07.150Z,5.05
2023-04-21T02:13:10.769Z,4.82
2023-04-21T02:18:15.100Z,4.57
2023-04-21T02:23:19.998Z,4.33
2023-04-21T02:28:23.422Z,4.38
2023-04-21T02:33:27.113Z,3.75
2023-04-21T02:38:32.136Z,3.70
2023-04-21T02:48:39.021Z,4.95
2023-04-21T02:53:43.919Z,5.60
2023-04-21T02:58:47.462Z,4.93
2023-04-21T03:03:51.049Z,4.63
2023-04-21T03:08:56.865Z,4.88
2023-04-21T03:14:00.361Z,4.78
2023-04-21T03:19:03.908Z,4.43
2023-04-21T03:24:09.751Z,3.85
2023-04-21T03:29:13.278Z,4.22
2023-04-21T03:34:16.874Z,3.63
2023-04-21T03:39:21.993Z,4.07
2023-04-21T03:44:27.388Z,4.15
2023-04-21T03:49:30.868Z,4.03
2023-04-21T03:54:35.739Z,3.97
2023-04-21T04:04:42.633Z,2.67
2023-04-21T04:09:47.656Z,2.33
2023-04-21T04:14:51.192Z,2.10
2023-04-21T04:19:54.709Z,2.10
2023-04-21T04:24:59.904Z,1.90
2023-04-21T04:30:04.813Z,1.88
2023-04-21T04:35:09.730Z,2.00
2023-04-21T04:40:15.548Z,2.00
2023-04-21T04:45:21.530Z,2.20
2023-04-21T04:50:25.271Z,2.40
2023-04-21T04:55:30.394Z,2.10
2023-04-21T05:00:34.013Z,2.13
2023-04-21T05:05:37.441Z,1.90
2023-04-21T05:10:42.354Z,1.90
2023-04-21T05:15:45.801Z,1.95
2023-04-21T05:20:49.279Z,1.90
2023-04-21T05:30:57.322Z,2.25
2023-04-21T05:36:00.782Z,1.92
2023-04-21T05:41:06.408Z,1.92
2023-04-21T05:46:11.510Z,2.10
2023-04-21T05:51:16.649Z,1.83
2023-04-21T05:56:21.577Z,2.17
2023-04-21T06:01:25.414Z,2.10
2023-04-21T06:06:29.281Z,1.90
2023-04-21T06:11:34.678Z,2.00
2023-04-21T06:16:38.361Z,2.22
2023-04-21T06:21:42.088Z,2.25
2023-04-21T06:26:47.151Z,2.10
2023-04-21T06:31:50.747Z,2.10
2023-04-21T06:36:54.529Z,2.17
2023-04-21T06:41:59.424Z,2.00
2023-04-21T06:47:02.962Z,2.05
2023-04-21T06:52:06.624Z,2.20
2023-04-21T06:57:11.534Z,2.33
2023-04-21T07:02:15.063Z,1.92
2023-04-21T07:07:18.813Z,1.98
2023-04-21T07:12:24.132Z,1.90
2023-04-21T07:17:27.747Z,1.90
2023-04-21T07:22:31.674Z,2.15
2023-04-21T07:27:37.260Z,2.15
2023-04-21T07:32:40.964Z,1.67
2023-04-21T07:37:44.653Z,1.75
2023-04-21T07:42:49.622Z,1.83
2023-04-21T07:47:53.191Z,2.15
2023-04-21T07:52:56.804Z,1.60
2023-04-21T07:58:01.791Z,1.83
2023-04-21T08:03:05.696Z,1.70
2023-04-21T08:08:10.006Z,1.70
2023-04-21T08:13:15.080Z,1.60
2023-04-21T08:18:22.093Z,1.75
2023-04-21T08:23:26.326Z,1.70
2023-04-21T08:28:31.255Z,1.50
2023-04-21T08:33:34.840Z,1.80
2023-04-21T08:38:39.021Z,1.40
2023-04-21T08:43:44.095Z,1.30
2023-04-21T08:48:48.902Z,1.25
2023-04-21T08:53:52.486Z,1.10
2023-04-21T08:58:57.680Z,1.77
2023-04-21T09:04:17.648Z,1.52
2023-04-21T09:09:21.907Z,1.10
2023-04-21T09:14:34.133Z,1.40
2023-04-21T09:19:37.841Z,1.00
2023-04-21T09:24:47.101Z,1.08
2023-04-21T09:29:52.130Z,1.20
2023-04-21T09:35:01.587Z,1.10
2023-04-21T09:40:08.920Z,1.00
2023-04-21T09:50:51.287Z,1.42
2023-04-21T09:55:49.363Z,1.00
2023-04-21T10:00:57.565Z,1.00
2023-04-21T10:06:02.229Z,1.27
2023-04-21T10:11:06.904Z,1.10
2023-04-21T10:16:12.311Z,1.80
2023-04-21T10:21:22.265Z,1.40
2023-04-21T10:26:27.519Z,1.38
2023-04-21T10:31:34.802Z,1.38
2023-04-21T10:36:45.113Z,1.10
2023-04-21T10:41:49.002Z,1.30
2023-04-21T10:46:55.167Z,1.30
2023-04-21T10:52:06.419Z,1.40
2023-04-21T10:57:11.652Z,1.40
2023-04-21T11:02:18.753Z,1.50
2023-04-21T11:07:24.359Z,1.30
2023-04-21T11:12:32.808Z,1.65
2023-04-21T11:17:40.082Z,1.20
2023-04-21T11:22:43.750Z,1.13
2023-04-21T11:27:56.107Z,1.30
2023-04-21T11:33:01.296Z,1.20
2023-04-21T11:38:06.866Z,1.42
2023-04-21T11:43:10.546Z,1.17
2023-04-21T11:48:19.754Z,1.27
2023-04-21T11:53:23.405Z,1.20
2023-04-21T11:58:28.325Z,1.30
2023-04-21T12:03:34.074Z,1.00
2023-04-21T12:08:37.710Z,1.30
2023-04-21T12:13:42.022Z,1.23
2023-04-21T12:18:46.857Z,1.25
2023-04-21T12:23:50.594Z,1.20
2023-04-21T12:28:54.626Z,1.20
2023-04-21T12:33:59.597Z,1.10
2023-04-21T12:39:03.331Z,1.23
2023-04-21T12:44:07.527Z,1.20
2023-04-21T12:49:12.559Z,1.33
2023-04-21T12:54:16.319Z,1.20
2023-04-21T12:59:19.902Z,1.17
2023-04-21T13:04:25.192Z,1.10
2023-04-21T13:09:29.030Z,1.02
2023-04-21T13:14:32.603Z,1.27
2023-04-21T13:19:37.518Z,1.40
2023-04-21T13:24:41.350Z,1.30
2023-04-21T13:29:45.711Z,1.00
2023-04-21T13:34:50.638Z,1.00
2023-04-21T13:39:54.225Z,1.15
2023-04-21T13:44:57.751Z,1.33
2023-04-21T13:50:03.107Z,1.25
2023-04-21T13:55:08.900Z,1.27
2023-04-21T14:00:13.368Z,1.20
2023-04-21T14:10:22.097Z,1.08
2023-04-21T14:15:26.229Z,1.50
2023-04-21T14:20:31.264Z,1.10
2023-04-21T14:25:34.793Z,1.25
2023-04-21T14:30:38.700Z,1.70
2023-04-21T14:35:43.617Z,1.20
2023-04-21T14:40:47.089Z,1.08
2023-04-21T14:45:50.903Z,0.90
2023-04-21T14:50:58.029Z,1.25
2023-04-21T14:56:01.814Z,1.05
2023-04-21T15:01:05.885Z,1.48
2023-04-21T15:06:11.236Z,1.13
2023-04-21T15:11:14.890Z,1.58
2023-04-21T15:16:18.389Z,1.10
2023-04-21T15:21:23.466Z,1.00
2023-04-21T15:26:27.008Z,1.10
2023-04-21T15:31:30.687Z,1.23
2023-04-21T15:36:35.881Z,1.20
2023-04-21T15:41:39.557Z,1.48
2023-04-21T15:46:43.550Z,1.53
2023-04-21T15:51:48.669Z,1.30
2023-04-21T15:56:52.124Z,1.38
2023-04-21T16:01:57.173Z,1.55
2023-04-21T16:07:02.379Z,1.20
2023-04-21T16:12:10.282Z,1.42
2023-04-21T16:17:14.728Z,1.33
2023-04-21T16:22:20.502Z,1.95
2023-04-21T16:27:24.079Z,1.55
2023-04-21T16:32:27.620Z,1.50
2023-04-21T16:37:32.629Z,1.50
2023-04-21T16:42:36.221Z,1.50
2023-04-21T16:47:42.094Z,1.33
2023-04-21T16:52:47.594Z,1.60
2023-04-21T16:57:51.263Z,1.55
2023-04-21T17:02:54.855Z,2.22
2023-04-21T17:07:59.878Z,2.20
2023-04-21T17:13:04.567Z,2.30
2023-04-21T17:18:08.127Z,2.13
2023-04-21T17:23:13.197Z,2.28
2023-04-21T17:28:16.804Z,2.38
2023-04-21T17:33:20.335Z,2.70
2023-04-21T17:38:25.471Z,2.70
2023-04-21T17:43:29.287Z,2.10
2023-04-21T17:48:32.917Z,3.23
2023-04-21T17:53:37.763Z,3.05
2023-04-21T18:03:45.280Z,4.53
2023-04-21T18:08:50.364Z,4.73
2023-04-21T18:13:54.456Z,4.40
2023-04-21T18:18:57.878Z,5.23
2023-04-21T18:24:02.872Z,4.72
2023-04-21T18:29:06.472Z,4.60
2023-04-21T18:34:11.884Z,4.20
2023-04-21T18:39:16.811Z,6.70
2023-04-21T18:49:23.776Z,4.93
2023-04-21T18:54:28.655Z,4.65
2023-04-21T19:04:35.353Z,4.40
2023-04-21T19:09:40.364Z,4.32
2023-04-21T19:14:47.446Z,5.28
2023-04-21T19:19:51.457Z,4.63
2023-04-21T19:24:57.246Z,5.47
2023-04-21T19:30:00.898Z,4.80
2023-04-21T19:35:04.901Z,5.10
2023-04-21T19:40:11.485Z,6.05
2023-04-21T19:45:14.985Z,5.53
2023-04-21T19:50:18.718Z,5.13
2023-04-21T19:55:24.094Z,5.20
2023-04-21T20:00:27.687Z,4.57
2023-04-21T20:05:31.195Z,4.00
2023-04-21T20:10:37.666Z,3.90
2023-04-21T20:15:42.199Z,4.68
2023-04-21T20:20:45.808Z,4.80
2023-04-21T20:25:50.714Z,4.07
2023-04-21T20:35:57.500Z,4.53
2023-04-21T20:41:02.516Z,4.95
2023-04-21T20:46:06.134Z,5.95
2023-04-21T20:51:09.684Z,4.30
2023-04-21T20:56:14.555Z,4.72
2023-04-21T21:01:18.348Z,4.60
2023-04-21T21:06:22.346Z,4.32
2023-04-21T21:11:27.380Z,4.20
2023-04-21T21:21:34.995Z,4.53
2023-04-21T21:26:42.533Z,4.43
2023-04-21T21:31:46.515Z,3.90
2023-04-21T21:36:50.044Z,3.95
2023-04-21T21:41:55.317Z,3.63
2023-04-21T21:46:58.829Z,3.80
2023-04-21T21:52:02.776Z,4.13
2023-04-21T21:57:07.810Z,3.85
2023-04-21T22:02:11.410Z,3.60
2023-04-21T22:07:15.106Z,3.92
2023-04-21T22:12:20.014Z,3.80
2023-04-21T22:22:27.382Z,3.30
2023-04-21T22:27:33.879Z,3.30
2023-04-21T22:32:37.710Z,4.07
2023-04-21T22:37:41.153Z,2.80
2023-04-21T22:42:46.163Z,3.45
2023-04-21T22:52:53.511Z,3.80
2023-04-21T22:57:58.412Z,3.95
2023-04-21T23:08:05.762Z,3.22
2023-04-21T23:13:11.100Z,3.65
2023-04-21T23:18:14.563Z,3.47
2023-04-21T23:23:19.763Z,3.28
2023-04-21T23:28:25.103Z,3.40
2023-04-21T23:33:28.650Z,2.65
2023-04-21T23:38:32.116Z,2.80
2023-04-21T23:43:37.400Z,2.97
2023-04-21T23:48:40.818Z,3.15
2023-04-21T23:53:44.398Z,2.70
2023-04-21T23:58:49.347Z,3.47
